• Join FlightAware (Why Join?)
  • Login
  • US Flag 
06:32AM EDT


 

Airport Tracker/Info


-or-


 

Live Flight TrackerFlight Track Log ✈ N269ML ✈ 17-Oct-2013 ✈ KNEW - KGYI

Flight Track Log - Related Links

Times and Time Zones

All times are in EDT time to prevent confusion due to time zone crossing. See the N269ML flight status page for this flight to view local times or setup timezone preferences in your user account.

Time Position Orientation Groundspeed Altitude Reporting Facility
EDT Latitude Longitude Course Direction KTS MPH feet Rate Location/Type
08:10PM 30.0506 -90.0300 349° North 93 107 400  Level Houston Center
08:10PM 30.0675 -90.0339 349° North 123 142 1,200 1,500 Climbing Houston Center
08:11PM 30.0897 -90.0786 300° West 144 166 3,000 1,080 Climbing Houston Center
08:12PM 30.0878 -90.0942 262° West 154 177 2,900  Descending Houston Center
08:12PM 30.0853 -90.1367 266° West 201 231 3,000 60 Climbing Houston Center
08:13PM 30.0844 -90.1572 267° West 181 208 3,000  Level Houston Center
08:13PM 30.0833 -90.2064 269° West 211 243 3,000 60 Level Houston Center
08:14PM 30.0828 -90.2236 268° West 196 226 3,100 1,140 Climbing Houston Center
08:14PM 30.0853 -90.2686 274° West 190 219 4,200 1,440 Climbing Houston Center
08:15PM 30.0947 -90.2800 314° West 197 227 4,600 1,500 Climbing Houston Center
08:15PM 30.1178 -90.3083 313° West 185 213 5,600 1,440 Climbing Houston Center
08:16PM 30.1322 -90.3217 321° Northwest 192 221 6,100 1,440 Climbing Houston Center
08:17PM 30.1772 -90.3678 318° Northwest 185 213 7,900 1,500 Climbing Houston Center
08:18PM 30.2150 -90.4056 319° Northwest 180 207 9,200 1,260 Climbing Houston Center
08:19PM 30.2558 -90.4436 321° Northwest 188 216 10,600 1,320 Climbing Houston Center
08:20PM 30.2944 -90.4806 320° Northwest 182 209 12,000 1,200 Climbing Houston Center
08:21PM 30.3328 -90.5167 321° Northwest 178 205 13,200 1,140 Climbing Houston Center
08:22PM 30.3717 -90.5528 321° Northwest 180 207 14,400 1,080 Climbing Houston Center
08:23PM 30.4106 -90.5889 321° Northwest 179 206 15,500 1,020 Climbing Houston Center
08:24PM 30.4447 -90.6450 305° West 177 204 16,600 1,020 Climbing Houston Center
08:25PM 30.4775 -90.6908 310° West 184 212 17,600 960 Climbing Houston Center
08:26PM 30.5106 -90.7328 312° West 178 205 18,600 840 Climbing Houston Center
08:27PM 30.5408 -90.7792 307° West 179 206 19,400 720 Climbing Houston Center
08:28PM 30.5739 -90.8225 308° West 180 207 20,200 720 Climbing Houston Center
08:29PM 30.6064 -90.8653 311° West 179 206 21,000 720 Climbing Houston Center
08:30PM 30.6431 -90.9175 309° West 175 201 21,800 660 Climbing Houston Center
08:31PM 30.6747 -90.9611 310° West 177 204 22,400 540 Climbing Houston Center
08:32PM 30.7083 -91.0039 312° West 178 205 23,000 480 Climbing Houston Center
08:33PM 30.7406 -91.0489 310° West 181 208 23,500 540 Climbing Houston Center
08:34PM 30.7731 -91.1025 305° West 180 207 24,200 600 Climbing Houston Center
08:35PM 30.7992 -91.1472 304° West 170 196 24,800 540 Climbing Houston Center
08:36PM 30.8283 -91.1886 309° West 167 192 25,400 480 Climbing Houston Center
08:38PM 30.8536 -91.2322 304° West 164 189 25,800 240 Climbing Houston Center
08:39PM 30.8831 -91.2764 308° West 169 194 26,000 60 Climbing Houston Center
08:40PM 30.9178 -91.3219 312° West 184 212 26,000  Level Houston Center
08:41PM 30.9531 -91.3861 303° West 196 226 26,000  Level Houston Center
08:42PM 30.9828 -91.4408 302° West 199 229 26,000  Level Houston Center
08:43PM 31.0131 -91.4956 303° West 201 231 26,000  Level Houston Center
08:44PM 31.0433 -91.5503 303° West 201 231 26,000  Level Houston Center
08:45PM 31.0742 -91.6039 304° West 200 230 26,000  Level Houston Center
08:46PM 31.1044 -91.6564 304° West 198 228 26,000  Level Houston Center
08:47PM 31.1328 -91.7097 302° West 194 223 26,000  Level Houston Center
08:48PM 31.1678 -91.7719 303° West 193 222 26,000  Level Houston Center
08:49PM 31.1961 -91.8244 302° West 191 220 26,000  Level Houston Center
08:50PM 31.2269 -91.8769 304° West 195 224 26,000  Level Houston Center
08:51PM 31.2558 -91.9294 303° West 194 223 26,000  Level Houston Center
08:52PM 31.2850 -91.9819 303° West 193 222 26,000  Level Houston Center
08:53PM 31.3186 -92.0422 303° West 195 224 26,000  Level Houston Center
08:54PM 31.3489 -92.0958 303° West 197 227 26,000  Level Houston Center
08:55PM 31.3786 -92.1489 303° West 196 226 26,000  Level Houston Center
08:56PM 31.4081 -92.2025 303° West 196 226 26,000  Level Houston Center
08:57PM 31.4383 -92.2558 304° West 196 226 26,000  Level Houston Center
08:58PM 31.4753 -92.3206 304° West 198 228 26,000  Level Houston Center
08:59PM 31.5033 -92.3728 302° West 195 224 26,000  Level Houston Center
09:00PM 31.5331 -92.4269 303° West 196 226 26,000  Level Houston Center
09:01PM 31.5631 -92.4797 304° West 195 224 26,000  Level Houston Center
09:02PM 31.5925 -92.5339 303° West 196 226 26,000  Level Houston Center
09:03PM 31.6231 -92.5878 304° West 198 228 26,000  Level Houston Center
09:04PM 31.6519 -92.6414 302° West 196 226 26,000  Level Houston Center
09:05PM 31.6811 -92.6950 303° West 195 224 26,000  Level Houston Center
09:06PM 31.7169 -92.7600 303° West 197 227 26,000  Level Houston Center
09:07PM 31.7469 -92.8142 303° West 198 228 26,000 -60 Level Houston Center
09:08PM 31.7761 -92.8692 302° West 198 228 25,900 -60 Descending Houston Center
09:09PM 31.8072 -92.9236 304° West 200 230 25,900  Level Houston Center
09:10PM 31.8372 -92.9783 303° West 197 227 25,900  Level Houston Center
09:11PM 31.8669 -93.0344 302° West 200 230 25,900  Level Houston Center
09:12PM 31.8978 -93.0914 303° West 205 236 25,900  Level Houston Center
09:14PM 31.9272 -93.1453 303° West 198 228 25,900  Level Houston Center
09:15PM 31.9628 -93.2108 303° West 197 227 25,900  Level Houston Center
09:16PM 31.9928 -93.2656 303° West 199 229 25,900  Level Houston Center
09:17PM 32.0233 -93.3211 303° West 201 231 25,900  Level Houston Center
09:18PM 32.0525 -93.3769 302° West 201 231 25,900  Level Houston Center
09:19PM 32.0825 -93.4319 303° West 201 231 25,900  Level Houston Center
09:20PM 32.1125 -93.4872 303° West 200 230 25,900  Level Houston Center
09:21PM 32.1436 -93.5431 303° West 201 231 25,900  Level Houston Center
09:22PM 32.1753 -93.6031 302° West 201 231 25,900  Level Houston Center
09:23PM 32.2042 -93.6586 302° West 201 231 25,900  Level Houston Center
09:24PM 32.2428 -93.7242 305° West 193 222 25,900  Level Fort Worth Center
09:25PM 32.2717 -93.7819 301° West 199 229 25,900  Level Fort Worth Center
09:26PM 32.3003 -93.8350 303° West 199 229 25,900  Level Fort Worth Center
09:27PM 32.3311 -93.8903 303° West 205 236 25,900  Level Fort Worth Center
09:28PM 32.3597 -93.9458 301° West 200 230 25,900  Level Fort Worth Center
09:29PM 32.3883 -94.0011 302° West 200 230 25,900  Level Fort Worth Center
09:30PM 32.4172 -94.0592 301° West 205 236 25,900  Level Fort Worth Center
09:31PM 32.4478 -94.1097 306° West 205 236 25,900  Level Fort Worth Center
09:32PM 32.4764 -94.1653 301° West 205 236 26,000  Climbing Fort Worth Center
09:33PM 32.5028 -94.2211 299° West 205 236 26,000  Level Fort Worth Center
09:34PM 32.5333 -94.2792 302° West 205 236 26,000  Level Fort Worth Center
09:35PM 32.5619 -94.3322 303° West 205 236 26,000  Level Fort Worth Center
09:36PM 32.5881 -94.3831 301° West 205 236 26,000  Level Fort Worth Center
09:37PM 32.6186 -94.4389 303° West 200 230 26,000  Level Fort Worth Center
09:38PM 32.6472 -94.4947 301° West 200 230 26,000  Level Fort Worth Center
09:39PM 32.6756 -94.5481 302° West 205 236 26,000  Level Fort Worth Center
09:40PM 32.7039 -94.6039 301° West 205 236 26,000  Level Fort Worth Center
09:41PM 32.7300 -94.6525 303° West 205 236 26,000  Level Fort Worth Center
09:42PM 32.7583 -94.7061 302° West 205 236 26,000  Level Fort Worth Center
09:43PM 32.8011 -94.7542 317° Northwest 205 236 26,000  Level Fort Worth Center
09:44PM 32.8458 -94.7972 321° Northwest 211 243 26,000  Level Fort Worth Center
09:45PM 32.8908 -94.8456 318° Northwest 211 243 26,000  Level Fort Worth Center
09:46PM 32.9394 -94.8861 325° Northwest 211 243 26,000 -240 Level Fort Worth Center
09:47PM 32.9842 -94.9319 319° Northwest 211 243 25,600 -600 Descending Fort Worth Center
09:48PM 33.0333 -94.9850 318° Northwest 217 250 24,900 -660 Descending Fort Worth Center
09:49PM 33.0783 -95.0433 313° West 229 264 24,300 -480 Descending Fort Worth Center
09:50PM 33.1044 -95.1097 295° West 229 264 24,000 -360 Descending Fort Worth Center
09:51PM 33.1267 -95.1736 293° West 217 250 23,600 -720 Descending Fort Worth Center
09:52PM 33.1486 -95.2400 292° West 217 250 22,600 -900 Descending Fort Worth Center
09:53PM 33.1708 -95.3114 290° West 217 250 21,800 -900 Descending Fort Worth Center
09:54PM 33.1969 -95.3828 294° West 228 262 20,800 -960 Descending Fort Worth Center
09:55PM 33.2272 -95.4517 298° West 233 268 19,900 -1,020 Descending Fort Worth Center
09:56PM 33.2594 -95.5181 300° West 233 268 18,800 -1,320 Descending Fort Worth Center
09:57PM 33.2919 -95.5969 296° West 238 274 17,300 -1,200 Descending Fort Worth Center
09:58PM 33.3222 -95.6658 298° West 238 274 16,400 -1,020 Descending Fort Worth Center
09:59PM 33.3503 -95.7300 298° West 231 266 15,300 -1,140 Descending Fort Worth Center
10:00PM 33.3783 -95.7989 296° West 236 272 14,200 -1,080 Descending Fort Worth Center
10:01PM 33.4022 -95.8683 292° West 236 272 13,200 -960 Descending Fort Worth Center
10:02PM 33.4258 -95.9400 292° West 229 264 12,300 -1,080 Descending Fort Worth Center
10:03PM 33.4497 -96.0092 293° West 229 264 11,100 -1,080 Descending Fort Worth Center
10:04PM 33.4733 -96.0786 292° West 229 264 10,200 -960 Descending Fort Worth Center
10:05PM 33.4969 -96.1456 293° West 229 264 9,200 -1,020 Descending Fort Worth Center
10:06PM 33.5186 -96.2100 292° West 229 264 8,200 -1,140 Descending Fort Worth Center
10:07PM 33.5464 -96.2744 297° West 222 255 7,000 -1,200 Descending Fort Worth Center
10:08PM 33.5739 -96.3414 296° West 217 250 5,900 -1,080 Descending Fort Worth Center
10:09PM 33.5997 -96.4083 295° West 217 250 4,900 -1,020 Descending Fort Worth Center